Terminal Aerodrome Forecast
Issued by NWS

Home | Current Version | Previous Version | Text Only | Print | Product List | Glossary On
Versions: 1 2 3 4 5 6 7 8 9 10 11 12 13 14 15 16 17 18 19 20
000
FTUS45 KGJT 230533
TAFASE
TAF
KASE 230533Z 2306/2406 17008KT P6SM VCSH SCT080 BKN150
      WS020/22030KT
      TEMPO 2306/2308 17015G25KT
     FM230800 18015G25KT P6SM VCSH SCT060 BKN100
     FM231000 36012KT P6SM VCSH BKN050
     FM231600 33015G25KT P6SM VCSH BKN050
     FM240200 21005KT P6SM SCT090=

USA.gov is the U.S. government's official web portal to all federal, state and local government web resources and services.